createdAt,value
2023-02-13T00:02:22.229Z,7.15
2023-02-13T00:04:49.692Z,7.09
2023-02-13T00:07:17.134Z,7.10
2023-02-13T00:09:46.351Z,7.15
2023-02-13T00:12:13.768Z,7.10
2023-02-13T00:14:41.504Z,7.13
2023-02-13T00:17:08.910Z,7.06
2023-02-13T00:19:36.282Z,7.01
2023-02-13T00:22:03.932Z,7.06
2023-02-13T00:24:31.285Z,7.04
2023-02-13T00:26:58.713Z,7.04
2023-02-13T00:29:26.082Z,7.12
2023-02-13T00:31:53.596Z,7.03
2023-02-13T00:34:21.092Z,7.09
2023-02-13T00:36:48.487Z,7.06
2023-02-13T00:39:15.878Z,7.13
2023-02-13T00:41:43.342Z,7.10
2023-02-13T00:44:11.327Z,7.06
2023-02-13T00:46:39.655Z,7.19
2023-02-13T00:49:07.121Z,7.18
2023-02-13T00:51:34.638Z,7.19
2023-02-13T00:54:02.152Z,7.18
2023-02-13T00:56:29.736Z,7.15
2023-02-13T00:58:57.353Z,7.18
2023-02-13T01:01:24.838Z,7.20
2023-02-13T01:03:52.331Z,7.17
2023-02-13T01:06:19.752Z,7.16
2023-02-13T01:08:47.230Z,7.09
2023-02-13T01:11:14.638Z,7.21
2023-02-13T01:13:42.061Z,7.20
2023-02-13T01:16:09.626Z,7.08
2023-02-13T01:18:37.113Z,7.12
2023-02-13T01:21:06.229Z,7.11
2023-02-13T01:23:35.047Z,7.15
2023-02-13T01:26:04.574Z,7.11
2023-02-13T01:28:32.059Z,7.18
2023-02-13T01:31:00.052Z,7.19
2023-02-13T01:33:28.701Z,7.20
2023-02-13T01:35:56.492Z,7.20
2023-02-13T01:38:23.922Z,7.19
2023-02-13T01:40:52.826Z,7.16
2023-02-13T01:43:23.407Z,7.09
2023-02-13T01:45:52.060Z,7.14
2023-02-13T01:48:21.023Z,7.08
2023-02-13T01:50:52.586Z,7.15
2023-02-13T01:53:24.279Z,7.13
2023-02-13T01:55:54.246Z,7.14
2023-02-13T01:58:23.863Z,7.01
2023-02-13T02:00:51.401Z,7.03
2023-02-13T02:03:22.387Z,7.08
2023-02-13T02:05:51.237Z,7.19
2023-02-13T02:08:19.202Z,7.14
2023-02-13T02:10:46.701Z,7.14
2023-02-13T02:13:17.375Z,7.09
2023-02-13T02:15:44.873Z,7.10
2023-02-13T02:18:16.811Z,7.08
2023-02-13T02:21:03.011Z,7.10
2023-02-13T02:23:49.349Z,7.13
2023-02-13T02:26:16.816Z,7.07
2023-02-13T02:28:44.220Z,7.16
2023-02-13T02:31:34.985Z,7.12
2023-02-13T02:34:19.163Z,6.93
2023-02-13T02:37:05.213Z,7.06
2023-02-13T02:39:40.126Z,7.14
2023-02-13T02:42:07.555Z,7.07
2023-02-13T02:44:46.422Z,7.13
2023-02-13T02:47:43.069Z,7.17
2023-02-13T02:50:15.890Z,7.14
2023-02-13T02:52:49.745Z,7.05
2023-02-13T02:55:17.275Z,7.14
2023-02-13T02:58:13.724Z,7.13
2023-02-13T03:01:00.755Z,7.08
2023-02-13T03:03:46.882Z,7.04
2023-02-13T03:06:29.528Z,7.15
2023-02-13T03:09:16.892Z,7.16
2023-02-13T03:12:03.097Z,7.17
2023-02-13T03:14:30.507Z,7.12
2023-02-13T03:17:16.490Z,7.01
2023-02-13T03:20:01.574Z,7.04
2023-02-13T03:22:43.201Z,6.94
2023-02-13T03:25:30.202Z,6.99
2023-02-13T03:28:25.077Z,7.01
2023-02-13T03:31:02.569Z,6.96
2023-02-13T03:33:48.463Z,6.99
2023-02-13T03:36:33.250Z,7.07
2023-02-13T03:39:04.770Z,7.08
2023-02-13T03:41:44.162Z,7.01
2023-02-13T03:44:20.682Z,6.97
2023-02-13T03:46:49.753Z,6.97
2023-02-13T03:49:40.982Z,6.83
2023-02-13T03:52:11.888Z,6.97
2023-02-13T03:54:56.936Z,6.98
2023-02-13T03:57:42.798Z,6.96
2023-02-13T04:00:12.196Z,7.00
2023-02-13T04:02:42.821Z,6.97
2023-02-13T04:05:15.586Z,7.00
2023-02-13T04:07:43.007Z,6.95
2023-02-13T04:10:12.554Z,6.82
2023-02-13T04:12:44.679Z,6.93
2023-02-13T04:15:15.524Z,6.95
2023-02-13T04:17:46.863Z,6.89
2023-02-13T04:20:14.667Z,6.93
2023-02-13T04:22:46.029Z,6.79
2023-02-13T04:25:15.037Z,6.78
2023-02-13T04:27:42.421Z,6.98
2023-02-13T04:30:10.203Z,6.96
2023-02-13T04:32:37.750Z,6.87
2023-02-13T04:35:05.274Z,6.87
2023-02-13T04:37:32.701Z,6.98
2023-02-13T04:40:00.149Z,6.95
2023-02-13T04:42:27.600Z,6.72
2023-02-13T04:44:55.011Z,6.78
2023-02-13T04:47:22.450Z,6.78
2023-02-13T04:49:49.903Z,6.84
2023-02-13T04:52:17.335Z,6.79
2023-02-13T04:54:44.798Z,6.80
2023-02-13T04:57:12.229Z,6.84
2023-02-13T04:59:39.643Z,6.75
2023-02-13T05:02:07.095Z,6.84
2023-02-13T05:04:34.837Z,6.88
2023-02-13T05:07:02.289Z,6.90
2023-02-13T05:09:29.757Z,6.85
2023-02-13T05:11:57.448Z,6.82
2023-02-13T05:14:24.866Z,6.74
2023-02-13T05:16:52.291Z,6.72
2023-02-13T05:19:19.753Z,6.90
2023-02-13T05:22:04.766Z,6.95
2023-02-13T05:24:32.307Z,6.89
2023-02-13T05:26:59.701Z,6.94
2023-02-13T05:29:27.201Z,7.00
2023-02-13T05:31:55.638Z,6.94
2023-02-13T05:34:24.198Z,7.03
2023-02-13T05:36:52.052Z,6.96
2023-02-13T05:39:19.962Z,6.97
2023-02-13T05:41:47.884Z,7.05
2023-02-13T05:44:15.961Z,7.00
2023-02-13T05:46:44.837Z,7.04
2023-02-13T05:49:13.399Z,7.06
2023-02-13T05:51:40.815Z,7.12
2023-02-13T05:54:08.201Z,7.01
2023-02-13T05:56:35.638Z,7.10
2023-02-13T05:59:03.042Z,7.09
2023-02-13T06:01:30.405Z,7.14
2023-02-13T06:03:59.320Z,7.15
2023-02-13T06:06:27.682Z,7.14
2023-02-13T06:08:55.096Z,7.15
2023-02-13T06:11:22.702Z,7.12
2023-02-13T06:13:50.124Z,7.13
2023-02-13T06:16:17.757Z,7.20
2023-02-13T06:18:45.237Z,7.24
2023-02-13T06:21:12.667Z,7.29
2023-02-13T06:23:40.105Z,7.29
2023-02-13T06:26:08.820Z,7.34
2023-02-13T06:28:36.500Z,7.18
2023-02-13T06:31:04.111Z,7.16
2023-02-13T06:33:31.692Z,7.15
2023-02-13T06:35:59.219Z,7.12
2023-02-13T06:38:26.679Z,7.12
2023-02-13T06:40:54.135Z,7.16
2023-02-13T06:43:21.612Z,7.16
2023-02-13T06:45:49.010Z,7.18
2023-02-13T06:48:16.721Z,7.16
2023-02-13T06:50:44.272Z,7.05
2023-02-13T06:53:11.856Z,7.09
2023-02-13T06:55:40.091Z,7.13
2023-02-13T06:58:07.583Z,7.15
2023-02-13T07:00:35.165Z,7.11
2023-02-13T07:03:06.576Z,7.18
2023-02-13T07:05:34.176Z,7.15
2023-02-13T07:08:01.696Z,7.04
2023-02-13T07:10:29.178Z,7.05
2023-02-13T07:13:05.351Z,7.02
2023-02-13T07:15:36.862Z,6.97
2023-02-13T07:18:05.022Z,6.95
2023-02-13T07:20:32.534Z,6.91
2023-02-13T07:23:00.818Z,6.87
2023-02-13T07:25:28.757Z,6.72
2023-02-13T07:28:05.738Z,6.76
2023-02-13T07:30:33.892Z,6.68
2023-02-13T07:33:02.159Z,6.68
2023-02-13T07:35:29.528Z,6.61
2023-02-13T07:37:57.108Z,6.57
2023-02-13T07:40:24.522Z,6.54
2023-02-13T07:42:52.361Z,6.54
2023-02-13T07:45:19.815Z,6.53
2023-02-13T07:47:47.313Z,6.53
2023-02-13T07:50:14.988Z,6.52
2023-02-13T07:52:42.439Z,6.50
2023-02-13T07:55:11.615Z,6.57
2023-02-13T07:57:39.195Z,6.59
2023-02-13T08:00:06.985Z,6.61
2023-02-13T08:02:34.419Z,6.65
2023-02-13T08:05:01.843Z,6.64
2023-02-13T08:07:29.250Z,6.68
2023-02-13T08:10:14.222Z,6.73
2023-02-13T08:12:41.653Z,6.75
2023-02-13T08:15:10.697Z,6.81
2023-02-13T08:17:38.110Z,6.80
2023-02-13T08:20:07.869Z,6.84
2023-02-13T08:22:35.851Z,7.00
2023-02-13T08:25:03.811Z,7.04
2023-02-13T08:27:34.035Z,7.16
2023-02-13T08:30:01.868Z,7.14
2023-02-13T08:32:29.418Z,7.27
2023-02-13T08:34:56.850Z,7.29
2023-02-13T08:37:25.095Z,7.15
2023-02-13T08:39:52.651Z,7.27
2023-02-13T08:42:20.185Z,7.41
2023-02-13T08:44:47.646Z,7.34
2023-02-13T08:47:15.241Z,7.45
2023-02-13T08:49:43.120Z,7.49
2023-02-13T08:52:10.639Z,7.39
2023-02-13T08:54:38.102Z,7.62
2023-02-13T08:57:05.616Z,7.78
2023-02-13T08:59:33.214Z,7.74
2023-02-13T09:02:02.696Z,7.80
2023-02-13T09:04:30.306Z,7.92
2023-02-13T09:06:57.821Z,7.94
2023-02-13T09:09:25.300Z,7.88
2023-02-13T09:11:54.070Z,7.86
2023-02-13T09:14:23.290Z,7.95
2023-02-13T09:16:51.883Z,7.95
2023-02-13T09:19:19.391Z,8.06
2023-02-13T09:21:46.878Z,7.87
2023-02-13T09:24:14.361Z,7.92
2023-02-13T09:26:41.792Z,7.95
2023-02-13T09:29:09.246Z,8.04
2023-02-13T09:31:36.837Z,8.21
2023-02-13T09:34:04.396Z,8.22
2023-02-13T09:36:33.160Z,8.35
2023-02-13T09:39:00.949Z,8.40
2023-02-13T09:41:37.158Z,8.34
2023-02-13T09:44:33.575Z,8.45
2023-02-13T09:47:06.907Z,8.48
2023-02-13T09:49:36.968Z,8.54
2023-02-13T09:52:18.945Z,8.74
2023-02-13T09:54:46.939Z,8.45
2023-02-13T09:57:32.294Z,8.32
2023-02-13T10:00:14.580Z,8.53
2023-02-13T10:02:46.849Z,8.96
2023-02-13T10:05:25.025Z,9.13
2023-02-13T10:07:58.518Z,9.10
2023-02-13T10:10:41.224Z,9.63
2023-02-13T10:13:08.675Z,9.38
2023-02-13T10:15:49.526Z,9.51
2023-02-13T10:18:24.567Z,9.74
2023-02-13T10:20:57.664Z,9.91
2023-02-13T10:23:32.713Z,10.42
2023-02-13T10:26:02.219Z,10.92
2023-02-13T10:28:32.151Z,10.85
2023-02-13T10:31:04.089Z,11.01
2023-02-13T10:33:35.021Z,10.90
2023-02-13T10:36:02.609Z,10.97
2023-02-13T10:38:34.804Z,11.09
2023-02-13T10:41:02.172Z,11.28
2023-02-13T10:43:31.213Z,11.23
2023-02-13T10:46:07.801Z,11.32
2023-02-13T10:48:41.349Z,11.53
2023-02-13T10:51:09.871Z,11.40
2023-02-13T10:53:55.362Z,11.22
2023-02-13T10:56:26.683Z,10.84
2023-02-13T10:58:54.133Z,11.44
2023-02-13T11:01:40.521Z,11.06
2023-02-13T11:04:12.547Z,11.46
2023-02-13T11:06:44.424Z,11.43
2023-02-13T11:09:13.495Z,11.79
2023-02-13T11:11:44.155Z,11.97
2023-02-13T11:14:11.906Z,12.02
2023-02-13T11:16:52.807Z,11.78
2023-02-13T11:19:23.291Z,11.57
2023-02-13T11:21:54.340Z,11.74
2023-02-13T11:24:24.251Z,12.01
2023-02-13T11:26:53.672Z,12.12
2023-02-13T11:29:26.780Z,11.67
2023-02-13T11:32:05.560Z,12.20
2023-02-13T11:34:33.891Z,11.94
2023-02-13T11:37:21.847Z,11.97
2023-02-13T11:39:51.399Z,12.14
2023-02-13T11:42:36.273Z,12.33
2023-02-13T11:45:06.465Z,11.71
2023-02-13T11:47:40.010Z,11.42
2023-02-13T11:50:20.157Z,11.82
2023-02-13T11:52:55.440Z,12.20
2023-02-13T11:55:33.486Z,12.52
2023-02-13T11:58:20.954Z,12.14
2023-02-13T12:00:48.610Z,11.96
2023-02-13T12:03:22.352Z,12.26
2023-02-13T12:06:08.094Z,12.86
2023-02-13T12:08:36.981Z,12.81
2023-02-13T12:11:09.097Z,13.04
2023-02-13T12:13:40.217Z,12.95
2023-02-13T12:16:19.001Z,13.18
2023-02-13T12:18:50.393Z,13.35
2023-02-13T12:21:35.239Z,13.52
2023-02-13T12:24:15.520Z,13.31
2023-02-13T12:26:45.016Z,13.11
2023-02-13T12:29:18.642Z,13.26
2023-02-13T12:31:48.925Z,13.38
2023-02-13T12:34:28.452Z,13.49
2023-02-13T12:37:04.972Z,13.70
2023-02-13T12:39:34.198Z,13.59
2023-02-13T12:42:26.600Z,13.42
2023-02-13T12:45:02.914Z,13.43
2023-02-13T12:47:31.426Z,13.59
2023-02-13T12:50:21.975Z,13.19
2023-02-13T12:52:49.503Z,13.38
2023-02-13T12:55:32.357Z,12.90
2023-02-13T12:57:59.774Z,12.82
2023-02-13T13:00:30.306Z,12.70
2023-02-13T13:03:23.483Z,12.70
2023-02-13T13:06:10.505Z,12.80
2023-02-13T13:08:41.681Z,12.79
2023-02-13T13:11:11.911Z,12.51
2023-02-13T13:13:39.350Z,12.21
2023-02-13T13:16:16.824Z,12.61
2023-02-13T13:18:52.489Z,12.85
2023-02-13T13:21:28.777Z,12.62
2023-02-13T13:23:57.354Z,12.94
2023-02-13T13:26:32.185Z,13.12
2023-02-13T13:29:01.051Z,12.99
2023-02-13T13:31:29.249Z,13.04
2023-02-13T13:34:06.891Z,12.97
2023-02-13T13:36:41.691Z,12.99
2023-02-13T13:39:29.233Z,13.07
2023-02-13T13:42:01.005Z,13.11
2023-02-13T13:44:48.844Z,13.74
2023-02-13T13:47:16.263Z,14.16
2023-02-13T13:49:53.833Z,14.34
2023-02-13T13:52:26.729Z,14.72
2023-02-13T13:54:55.007Z,14.44
2023-02-13T13:57:23.842Z,14.48
2023-02-13T14:00:02.337Z,14.37
2023-02-13T14:02:40.382Z,14.29
2023-02-13T14:05:26.532Z,14.47
2023-02-13T14:07:55.427Z,14.87
2023-02-13T14:10:23.610Z,14.81
2023-02-13T14:12:57.237Z,14.98
2023-02-13T14:15:44.760Z,14.98
2023-02-13T14:18:12.420Z,14.50
2023-02-13T14:20:39.875Z,13.96
2023-02-13T14:23:09.411Z,13.49
2023-02-13T14:25:36.902Z,13.15
2023-02-13T14:28:05.544Z,12.73
2023-02-13T14:30:34.514Z,12.56
2023-02-13T14:33:05.817Z,12.44
2023-02-13T14:35:34.774Z,12.15
2023-02-13T14:38:03.768Z,12.23
2023-02-13T14:40:50.127Z,11.74
2023-02-13T14:43:30.946Z,11.58
2023-02-13T14:45:59.998Z,11.66
2023-02-13T14:48:38.595Z,11.51
2023-02-13T14:51:06.457Z,11.64
2023-02-13T14:53:47.990Z,11.72
2023-02-13T14:56:18.805Z,11.59
2023-02-13T14:58:59.669Z,11.54
2023-02-13T15:01:40.949Z,11.70
2023-02-13T15:04:12.249Z,11.58
2023-02-13T15:06:43.131Z,11.56
2023-02-13T15:09:20.515Z,11.63
2023-02-13T15:11:47.999Z,11.51
2023-02-13T15:14:21.722Z,11.48
2023-02-13T15:16:51.636Z,11.60
2023-02-13T15:19:20.419Z,11.45
2023-02-13T15:21:50.130Z,11.37
2023-02-13T15:24:17.762Z,11.32
2023-02-13T15:26:50.790Z,11.22
2023-02-13T15:29:29.316Z,11.22
2023-02-13T15:31:59.182Z,11.19
2023-02-13T15:34:32.216Z,11.10
2023-02-13T15:36:59.764Z,11.00
2023-02-13T15:39:28.416Z,10.98
2023-02-13T15:41:58.313Z,10.92
2023-02-13T15:44:39.490Z,10.95
2023-02-13T15:47:08.844Z,10.91
2023-02-13T15:49:40.387Z,10.84
2023-02-13T15:52:09.728Z,10.77
2023-02-13T15:54:37.251Z,10.77
2023-02-13T15:57:06.538Z,10.69
2023-02-13T15:59:38.572Z,10.78
2023-02-13T16:02:12.629Z,10.77
2023-02-13T16:04:41.883Z,10.70
2023-02-13T16:07:13.628Z,10.68
2023-02-13T16:09:41.185Z,10.62
2023-02-13T16:12:27.841Z,10.59
2023-02-13T16:15:03.047Z,10.53
2023-02-13T16:17:32.526Z,10.49
2023-02-13T16:20:00.019Z,10.40
2023-02-13T16:22:27.699Z,10.31
2023-02-13T16:24:56.974Z,10.20
2023-02-13T16:27:27.482Z,10.19
2023-02-13T16:29:59.900Z,10.10
2023-02-13T16:32:29.361Z,9.99
2023-02-13T16:34:57.517Z,9.91
2023-02-13T16:37:27.771Z,9.83
2023-02-13T16:39:55.234Z,9.76
2023-02-13T16:42:22.678Z,9.72
2023-02-13T16:44:50.079Z,9.64
2023-02-13T16:47:25.183Z,9.50
2023-02-13T16:49:54.925Z,9.32
2023-02-13T16:52:26.402Z,9.32
2023-02-13T16:54:58.027Z,9.29
2023-02-13T16:57:31.369Z,9.31
2023-02-13T17:00:04.999Z,9.14
2023-02-13T17:02:32.494Z,9.04
2023-02-13T17:05:16.214Z,8.97
2023-02-13T17:07:45.029Z,8.87
2023-02-13T17:10:27.215Z,8.71
2023-02-13T17:12:55.993Z,8.67
2023-02-13T17:15:24.565Z,8.57
2023-02-13T17:17:53.555Z,8.50
2023-02-13T17:20:28.709Z,8.44
2023-02-13T17:22:57.427Z,8.38
2023-02-13T17:25:26.182Z,8.37
2023-02-13T17:27:55.324Z,8.26
2023-02-13T17:30:24.072Z,8.21
2023-02-13T17:32:55.032Z,8.13
2023-02-13T17:35:22.625Z,8.19
2023-02-13T17:37:49.990Z,8.09
2023-02-13T17:40:18.547Z,8.07
2023-02-13T17:42:46.855Z,7.98
2023-02-13T17:45:18.234Z,7.96
2023-02-13T17:47:45.869Z,7.86
2023-02-13T17:50:14.515Z,7.82
2023-02-13T17:52:42.672Z,7.79
2023-02-13T17:55:18.276Z,7.70
2023-02-13T17:57:45.797Z,7.65
2023-02-13T18:00:14.840Z,7.59
2023-02-13T18:02:42.725Z,7.56
2023-02-13T18:05:10.592Z,7.57
2023-02-13T18:07:39.473Z,7.48
2023-02-13T18:10:08.856Z,7.40
2023-02-13T18:12:36.559Z,7.35
2023-02-13T18:15:05.301Z,7.34
2023-02-13T18:17:33.082Z,7.22
2023-02-13T18:20:00.549Z,7.21
2023-02-13T18:22:27.980Z,7.16
2023-02-13T18:24:55.399Z,7.13
2023-02-13T18:27:23.189Z,7.07
2023-02-13T18:29:50.687Z,7.00
2023-02-13T18:32:18.188Z,7.01
2023-02-13T18:34:46.631Z,7.02
2023-02-13T18:37:14.055Z,6.95
2023-02-13T18:39:41.497Z,6.97
2023-02-13T18:42:08.975Z,7.00
2023-02-13T18:44:36.642Z,6.97
2023-02-13T18:47:04.063Z,6.92
2023-02-13T18:49:31.443Z,6.88
2023-02-13T18:51:59.112Z,6.80
2023-02-13T18:54:26.521Z,6.78
2023-02-13T18:56:53.908Z,6.78
2023-02-13T18:59:22.950Z,6.82
2023-02-13T19:01:50.882Z,6.78
2023-02-13T19:04:18.487Z,6.71
2023-02-13T19:06:46.179Z,6.77
2023-02-13T19:09:13.594Z,6.77
2023-02-13T19:11:41.076Z,6.72
2023-02-13T19:14:08.668Z,6.78
2023-02-13T19:16:36.741Z,6.75
2023-02-13T19:19:05.600Z,6.75
2023-02-13T19:21:34.915Z,6.73
2023-02-13T19:24:06.281Z,6.70
2023-02-13T19:26:33.704Z,6.65
2023-02-13T19:29:01.194Z,6.53
2023-02-13T19:31:30.167Z,6.50
2023-02-13T19:33:59.448Z,6.47
2023-02-13T19:36:28.297Z,6.42
2023-02-13T19:38:56.906Z,6.42
2023-02-13T19:41:24.527Z,6.37
2023-02-13T19:43:53.564Z,6.31
2023-02-13T19:46:25.048Z,6.27
2023-02-13T19:48:52.669Z,6.15
2023-02-13T19:51:21.240Z,6.13
2023-02-13T19:53:48.934Z,6.11
2023-02-13T19:56:16.369Z,6.10
2023-02-13T19:58:44.038Z,6.13
2023-02-13T20:01:13.233Z,6.09
2023-02-13T20:03:41.139Z,6.04
2023-02-13T20:06:11.274Z,5.86
2023-02-13T20:08:40.851Z,6.03
2023-02-13T20:11:10.245Z,5.93
2023-02-13T20:13:37.787Z,5.84
2023-02-13T20:16:09.417Z,5.76
2023-02-13T20:18:38.407Z,5.67
2023-02-13T20:21:09.277Z,5.67
2023-02-13T20:23:37.265Z,5.59
2023-02-13T20:26:15.185Z,5.56
2023-02-13T20:28:42.863Z,5.52
2023-02-13T20:31:18.089Z,5.45
2023-02-13T20:33:45.900Z,5.41
2023-02-13T20:36:14.263Z,5.35
2023-02-13T20:38:42.619Z,5.31
2023-02-13T20:41:14.057Z,5.24
2023-02-13T20:43:41.885Z,5.23
2023-02-13T20:46:09.776Z,5.26
2023-02-13T20:48:37.933Z,5.23
2023-02-13T20:51:06.345Z,5.21
2023-02-13T20:53:34.542Z,5.17
2023-02-13T20:56:04.412Z,5.11
2023-02-13T20:58:32.472Z,5.01
2023-02-13T21:01:00.916Z,5.04
2023-02-13T21:03:28.527Z,5.03
2023-02-13T21:05:55.919Z,5.05
2023-02-13T21:08:23.302Z,5.03
2023-02-13T21:10:50.817Z,5.02
2023-02-13T21:13:18.360Z,5.00
2023-02-13T21:15:48.182Z,4.92
2023-02-13T21:18:15.795Z,4.85
2023-02-13T21:20:43.232Z,4.85
2023-02-13T21:23:10.705Z,4.75
2023-02-13T21:25:38.154Z,4.72
2023-02-13T21:28:05.598Z,4.67
2023-02-13T21:30:33.103Z,4.66
2023-02-13T21:33:00.625Z,4.64
2023-02-13T21:35:28.037Z,4.56
2023-02-13T21:37:55.405Z,4.50
2023-02-13T21:40:22.908Z,4.46
2023-02-13T21:42:52.794Z,4.43
2023-02-13T21:45:20.605Z,4.37
2023-02-13T21:47:48.124Z,4.28
2023-02-13T21:50:15.650Z,4.26
2023-02-13T21:52:43.158Z,4.26
2023-02-13T21:55:10.679Z,4.21
2023-02-13T21:57:38.538Z,4.09
2023-02-13T22:00:08.691Z,4.06
2023-02-13T22:02:36.199Z,4.05
2023-02-13T22:05:04.529Z,3.90
2023-02-13T22:07:32.035Z,4.00
2023-02-13T22:09:59.488Z,4.00
2023-02-13T22:12:26.960Z,4.04
2023-02-13T22:14:55.350Z,3.95
2023-02-13T22:17:22.856Z,3.95
2023-02-13T22:19:50.364Z,3.97
2023-02-13T22:22:17.876Z,3.87
2023-02-13T22:24:45.322Z,3.82
2023-02-13T22:27:12.753Z,3.80
2023-02-13T22:29:40.975Z,3.77
2023-02-13T22:32:08.667Z,3.73
2023-02-13T22:34:36.386Z,3.54
2023-02-13T22:37:03.842Z,3.52
2023-02-13T22:39:31.274Z,3.55
2023-02-13T22:41:58.699Z,3.59
2023-02-13T22:44:26.132Z,3.64
2023-02-13T22:46:53.568Z,3.70
2023-02-13T22:49:20.964Z,3.69
2023-02-13T22:51:48.363Z,3.61
2023-02-13T22:54:15.757Z,3.58
2023-02-13T22:56:44.307Z,3.52
2023-02-13T22:59:12.745Z,3.51
2023-02-13T23:01:40.184Z,3.49
2023-02-13T23:04:07.754Z,3.43
2023-02-13T23:06:35.310Z,3.47
2023-02-13T23:09:02.795Z,3.43
2023-02-13T23:11:47.670Z,3.42
2023-02-13T23:14:15.833Z,3.37
2023-02-13T23:17:01.441Z,3.36
2023-02-13T23:19:29.888Z,3.18
2023-02-13T23:21:57.532Z,3.20
2023-02-13T23:24:24.996Z,3.14
2023-02-13T23:26:52.462Z,3.14
2023-02-13T23:29:19.877Z,3.11
2023-02-13T23:31:47.620Z,3.11
2023-02-13T23:34:15.169Z,3.02
2023-02-13T23:36:42.873Z,3.03
2023-02-13T23:39:10.419Z,2.95
2023-02-13T23:41:37.841Z,2.89
2023-02-13T23:44:05.266Z,2.92
2023-02-13T23:46:32.831Z,2.87
2023-02-13T23:49:00.243Z,2.88
2023-02-13T23:51:27.630Z,2.84
2023-02-13T23:53:57.211Z,2.81
2023-02-13T23:56:25.844Z,2.85
2023-02-13T23:58:53.790Z,2.85
